Hlavní strana
METAR-TAF:

METAR-TAF

Letiště :

Billy Mitchell Airport

Hatteras, Severní Karolína, Spojené státy americké

zeměpisná šířka: 35-13-56N, zeměpisná délka: 075-37-21W, výška: 5 m

Aktuální stav počasí

Zpráva byla vytvořena před 6 minutami, v 09:51 UTC
Západní vítr 9 kt s nárazy do 16 kt
Teplota 22°C
Vlhkost vzduchu 83%
Tlak 1014 hPa
Viditelnost: 14.5 km
Jasno

METAR: KHSE 300951Z AUTO 26009G16KT 9SM CLR 22/19 A2995 RMK AO2 SLP142 T02170189

Čas: 05:57 (09:57 UTC)


TAF: chybějící

Stav a předpovědi počasí z více než 4 000 letišť (zprávy METAR a TAF).

Červené a žluté tečky na mapě představují dostupné meteorologické stanice.

Když kurzor umístíte na tečku, zobrazí se název stanice.

Pak kliknutím zobrazíte stav a předpověď počasí.

Chcete-li změnit mapu, kliknutím na zelené tlačítko se znaménkem +mapu přiblížíte, kliknutím na zelené tlačítko se znaménkem – mapu oddálíte a kliknutím na zelené šipky přejdete na sousední mapy.


METAR-TAF: